Time;durP1;ratioP1;P1;durP2;ratioP2;P2;SDS_P1;SDS_P2;PMS_P1;PMS_P2;Temp;Humidity;BMP_temperature;BMP_pressure;BME280_temperature;BME280_humidity;BME280_pressure;Samples;Min_cycle;Max_cycle;Signal;HPM_P1;HPM_P2
2020/12/09 00:01:52;;;;;;;0.20;0.10;;;6.90;99.90;;;;;;5071133;28;20044;-49
2020/12/09 00:04:20;;;;;;;0.10;0.00;;;6.80;99.90;;;;;;5059277;28;20056;-51
2020/12/09 00:06:48;;;;;;;0.00;0.00;;;6.70;99.90;;;;;;5079646;28;20095;-50
2020/12/09 00:09:18;;;;;;;0.00;0.00;;;6.60;99.90;;;;;;5076969;28;20094;-49
2020/12/09 00:11:45;;;;;;;0.00;0.00;;;6.40;99.90;;;;;;5067854;28;20048;-49
2020/12/09 00:14:12;;;;;;;0.00;0.00;;;6.30;99.90;;;;;;5070379;28;20045;-50
2020/12/09 00:16:39;;;;;;;0.00;0.00;;;6.20;99.90;;;;;;5056717;28;20041;-49
2020/12/09 00:19:06;;;;;;;0.00;0.00;;;6.10;99.90;;;;;;5072604;28;20071;-49
2020/12/09 00:21:34;;;;;;;1.08;0.00;;;6.00;99.90;;;;;;5071506;28;20041;-49
2020/12/09 00:24:02;;;;;;;0.00;0.00;;;6.00;99.90;;;;;;5067651;28;20044;-49
2020/12/09 00:26:30;;;;;;;1.13;0.00;;;6.00;99.90;;;;;;5072309;28;20045;-49
2020/12/09 00:28:57;;;;;;;0.00;0.00;;;5.90;99.90;;;;;;5072298;28;20044;-49
2020/12/09 00:31:30;;;;;;;0.00;0.00;;;5.90;99.90;;;;;;5069709;28;20045;-50
2020/12/09 00:33:57;;;;;;;0.00;0.00;;;5.90;99.90;;;;;;5077672;28;20045;-50
2020/12/09 00:36:24;;;;;;;0.00;0.00;;;5.90;99.90;;;;;;5071339;28;20048;-49
2020/12/09 00:38:52;;;;;;;0.00;0.00;;;5.80;99.90;;;;;;5064611;28;20045;-49
2020/12/09 00:41:21;;;;;;;0.00;0.00;;;5.70;99.90;;;;;;5070786;28;20623;-49
2020/12/09 00:43:48;;;;;;;0.00;0.00;;;5.70;99.90;;;;;;5069688;28;20052;-49
2020/12/09 00:46:22;;;;;;;0.00;0.00;;;5.70;99.90;;;;;;5056095;28;20474;-49
2020/12/09 00:48:49;;;;;;;0.10;0.00;;;5.70;99.90;;;;;;5068590;28;20499;-49
2020/12/09 00:51:18;;;;;;;0.00;0.00;;;5.60;99.90;;;;;;5063352;28;20127;-49
2020/12/09 00:53:45;;;;;;;0.95;0.00;;;5.60;99.90;;;;;;5064561;28;20068;-49
2020/12/09 00:56:12;;;;;;;0.00;0.00;;;5.60;99.90;;;;;;5061054;28;20049;-49
2020/12/09 00:58:39;;;;;;;0.00;0.00;;;5.60;99.90;;;;;;5071623;28;20044;-49
2020/12/09 01:01:07;;;;;;;0.00;0.00;;;5.60;99.90;;;;;;5069671;28;20619;-49
2020/12/09 01:03:34;;;;;;;0.00;0.00;;;5.60;99.90;;;;;;5061821;28;20045;-50
2020/12/09 01:06:02;;;;;;;0.00;0.00;;;5.60;99.90;;;;;;5071681;28;20056;-48
2020/12/09 01:08:28;;;;;;;0.00;0.00;;;5.50;99.90;;;;;;5070452;28;20052;-50
2020/12/09 01:10:55;;;;;;;0.85;0.00;;;5.60;99.90;;;;;;5068932;28;20063;-50
2020/12/09 01:13:22;;;;;;;0.00;0.00;;;5.60;99.90;;;;;;5069171;28;20433;-48
2020/12/09 01:15:48;;;;;;;0.90;0.00;;;5.50;99.90;;;;;;5062385;28;20394;-49
2020/12/09 01:18:16;;;;;;;0.00;0.00;;;5.50;99.90;;;;;;5070304;28;20041;-49
2020/12/09 01:20:43;;;;;;;0.00;0.00;;;5.50;99.90;;;;;;5056716;28;20076;-49
2020/12/09 01:23:09;;;;;;;0.00;0.00;;;5.50;99.90;;;;;;5071160;28;20519;-49
2020/12/09 01:25:36;;;;;;;0.00;0.00;;;5.50;99.90;;;;;;5062242;28;20110;-49
2020/12/09 01:28:04;;;;;;;0.00;0.00;;;5.50;99.90;;;;;;5067648;28;20397;-49
2020/12/09 01:30:31;;;;;;;0.00;0.00;;;5.50;99.90;;;;;;5077076;28;20055;-49
2020/12/09 01:32:59;;;;;;;0.00;0.00;;;5.40;99.90;;;;;;5084146;28;20051;-49
2020/12/09 01:35:26;;;;;;;0.00;0.00;;;5.40;99.90;;;;;;5072548;28;20047;-50
2020/12/09 01:37:53;;;;;;;0.00;0.00;;;5.30;99.90;;;;;;5073213;28;20393;-49
2020/12/09 01:40:20;;;;;;;0.00;0.00;;;5.30;99.90;;;;;;5071852;28;20110;-49
2020/12/09 01:42:50;;;;;;;0.00;0.00;;;5.30;99.90;;;;;;5073558;28;20057;-48
2020/12/09 01:45:18;;;;;;;0.00;0.00;;;5.30;99.90;;;;;;5065696;28;20081;-49
2020/12/09 01:47:46;;;;;;;0.00;0.00;;;5.30;99.90;;;;;;5064973;28;20051;-49
2020/12/09 01:50:14;;;;;;;0.00;0.00;;;5.20;99.90;;;;;;5075048;28;20060;-49
2020/12/09 01:52:41;;;;;;;0.00;0.00;;;5.20;99.90;;;;;;5070887;28;20493;-49
2020/12/09 01:55:08;;;;;;;0.00;0.00;;;5.20;99.90;;;;;;5076107;28;20052;-49
2020/12/09 01:57:36;;;;;;;0.00;0.00;;;5.10;99.90;;;;;;5068379;28;20068;-49
2020/12/09 02:00:05;;;;;;;0.32;0.00;;;5.10;99.90;;;;;;5058836;28;20056;-49
2020/12/09 02:02:32;;;;;;;0.10;0.00;;;5.10;99.90;;;;;;5073698;28;20048;-48
2020/12/09 02:04:58;;;;;;;0.80;0.00;;;5.10;99.90;;;;;;5069643;28;20060;-48
2020/12/09 02:07:28;;;;;;;1.13;0.00;;;5.10;99.90;;;;;;5065314;28;20052;-49
2020/12/09 02:10:02;;;;;;;0.00;0.00;;;5.10;99.90;;;;;;5068467;28;20053;-49
2020/12/09 02:12:30;;;;;;;0.00;0.00;;;5.10;99.90;;;;;;5073074;28;20053;-49
2020/12/09 02:14:56;;;;;;;0.00;0.00;;;5.10;99.90;;;;;;5072570;28;20036;-48
2020/12/09 02:17:24;;;;;;;0.10;0.00;;;5.00;99.90;;;;;;5074625;28;20040;-48
2020/12/09 02:19:50;;;;;;;0.00;0.00;;;5.00;99.90;;;;;;5073393;28;20055;-48
2020/12/09 02:22:18;;;;;;;0.75;0.10;;;5.00;99.90;;;;;;5072000;28;20052;-48
2020/12/09 02:24:45;;;;;;;1.45;0.00;;;5.10;99.90;;;;;;5059818;28;20056;-49
2020/12/09 02:27:11;;;;;;;0.35;0.00;;;5.10;99.90;;;;;;5067489;28;20055;-48
2020/12/09 02:29:38;;;;;;;0.00;0.00;;;5.10;99.90;;;;;;5062717;28;20457;-50
2020/12/09 02:32:04;;;;;;;0.00;0.00;;;5.20;99.90;;;;;;5073440;28;20044;-48
2020/12/09 02:34:30;;;;;;;0.00;0.00;;;5.20;99.90;;;;;;5072274;28;20469;-49
2020/12/09 02:36:57;;;;;;;0.03;0.00;;;5.20;99.90;;;;;;5073272;28;20044;-48
2020/12/09 02:39:36;;;;;;;0.10;0.00;;;5.20;99.90;;;;;;5071460;28;20047;-48
2020/12/09 02:42:04;;;;;;;0.00;0.00;;;5.20;99.90;;;;;;5063298;28;20064;-48
2020/12/09 02:44:31;;;;;;;0.00;0.00;;;5.30;99.90;;;;;;5069629;28;20056;-48
2020/12/09 02:46:58;;;;;;;0.00;0.00;;;5.30;99.90;;;;;;5070816;28;20064;-49
2020/12/09 02:49:25;;;;;;;0.00;0.00;;;5.30;99.90;;;;;;5066306;28;20375;-50
2020/12/09 02:51:52;;;;;;;0.00;0.00;;;5.30;99.90;;;;;;5059445;28;21417;-49
2020/12/09 02:54:19;;;;;;;0.00;0.00;;;5.30;99.90;;;;;;5073915;28;20048;-50
2020/12/09 02:56:45;;;;;;;0.20;0.00;;;5.30;99.90;;;;;;5071597;28;20052;-49
2020/12/09 02:59:13;;;;;;;0.10;0.00;;;5.30;99.90;;;;;;5058397;28;20052;-49
2020/12/09 03:01:40;;;;;;;1.20;0.00;;;5.40;99.90;;;;;;5071967;28;20044;-49
2020/12/09 03:04:06;;;;;;;0.00;0.00;;;5.40;99.90;;;;;;5072417;28;20049;-50
2020/12/09 03:06:33;;;;;;;0.00;0.00;;;5.40;99.90;;;;;;5068122;28;20044;-49
2020/12/09 03:09:00;;;;;;;0.00;0.00;;;5.30;99.90;;;;;;5070653;28;20049;-49
2020/12/09 03:11:28;;;;;;;1.88;0.00;;;5.30;99.90;;;;;;5072953;28;20587;-48
2020/12/09 03:13:54;;;;;;;0.00;0.00;;;5.40;99.90;;;;;;5071764;28;20048;-50
2020/12/09 03:16:21;;;;;;;0.00;0.00;;;5.40;99.90;;;;;;5058233;28;20049;-50
2020/12/09 03:18:48;;;;;;;0.10;0.00;;;5.30;99.90;;;;;;5069980;28;20044;-48
2020/12/09 03:21:14;;;;;;;0.00;0.00;;;5.30;99.90;;;;;;5072138;28;20378;-50
2020/12/09 03:23:41;;;;;;;0.00;0.00;;;5.30;99.90;;;;;;5071661;28;20060;-48
2020/12/09 03:26:07;;;;;;;1.30;0.00;;;5.30;99.90;;;;;;5071789;28;20481;-49
2020/12/09 03:28:35;;;;;;;0.70;0.00;;;5.30;99.90;;;;;;5072304;28;20044;-49
2020/12/09 03:31:08;;;;;;;0.05;0.05;;;5.40;99.90;;;;;;5074848;28;20045;-49
2020/12/09 03:33:35;;;;;;;0.10;0.10;;;5.40;99.90;;;;;;5073128;28;20416;-50
2020/12/09 03:36:03;;;;;;;0.13;0.13;;;5.30;99.90;;;;;;5071047;28;20048;-49
2020/12/09 03:38:29;;;;;;;0.20;0.10;;;5.30;99.90;;;;;;5054510;28;20041;-49
2020/12/09 03:40:56;;;;;;;0.00;0.00;;;5.30;99.90;;;;;;5071277;28;20056;-49
2020/12/09 03:43:22;;;;;;;0.10;0.00;;;5.30;99.90;;;;;;5067690;28;20048;-51
2020/12/09 03:45:48;;;;;;;0.60;0.05;;;5.30;99.90;;;;;;5066978;28;20070;-49
2020/12/09 03:48:16;;;;;;;0.08;0.00;;;5.30;99.90;;;;;;5070975;28;20080;-49
2020/12/09 03:50:42;;;;;;;0.00;0.00;;;5.30;99.90;;;;;;5071786;28;20059;-49
2020/12/09 03:53:08;;;;;;;0.00;0.00;;;5.30;99.90;;;;;;5070626;28;20056;-49
2020/12/09 03:55:35;;;;;;;0.15;0.00;;;5.30;99.90;;;;;;5059071;28;20052;-49
2020/12/09 03:58:01;;;;;;;0.00;0.00;;;5.30;99.90;;;;;;5072844;28;20480;-49
2020/12/09 04:00:28;;;;;;;0.03;0.00;;;5.30;99.90;;;;;;5083738;28;20052;-49
2020/12/09 04:02:55;;;;;;;0.10;0.00;;;5.30;99.90;;;;;;5070520;28;20052;-50
2020/12/09 04:05:22;;;;;;;2.45;0.00;;;5.30;99.90;;;;;;5070662;28;20044;-49
2020/12/09 04:07:49;;;;;;;0.20;0.20;;;5.30;99.90;;;;;;5072315;28;20052;-49
2020/12/09 04:10:17;;;;;;;0.68;0.00;;;5.30;99.90;;;;;;5072305;28;20469;-49
2020/12/09 04:12:44;;;;;;;0.10;0.00;;;5.30;99.90;;;;;;5054322;28;20048;-48
2020/12/09 04:15:11;;;;;;;0.00;0.00;;;5.30;99.90;;;;;;5069332;28;20938;-48
2020/12/09 04:17:38;;;;;;;0.00;0.00;;;5.30;99.90;;;;;;5070908;28;20040;-49
2020/12/09 04:20:06;;;;;;;0.30;0.20;;;5.30;99.90;;;;;;5063868;28;20052;-49
2020/12/09 04:22:33;;;;;;;0.55;0.10;;;5.30;99.90;;;;;;5059895;28;20053;-49
2020/12/09 04:25:00;;;;;;;0.00;0.00;;;5.20;99.90;;;;;;5071870;28;20059;-49
2020/12/09 04:27:27;;;;;;;0.10;0.00;;;5.20;99.90;;;;;;5069145;28;20479;-49
2020/12/09 04:29:54;;;;;;;0.00;0.00;;;5.20;99.90;;;;;;5088730;28;20044;-49
2020/12/09 04:32:20;;;;;;;0.00;0.00;;;5.30;99.90;;;;;;5070883;28;20385;-49
2020/12/09 04:34:47;;;;;;;2.83;0.20;;;5.30;99.90;;;;;;5069913;28;20056;-50
2020/12/09 04:37:17;;;;;;;0.00;0.00;;;5.20;99.90;;;;;;5071588;28;20051;-49
2020/12/09 04:39:43;;;;;;;0.00;0.00;;;5.20;99.90;;;;;;5069536;28;20504;-49
2020/12/09 04:42:19;;;;;;;0.00;0.00;;;5.30;99.90;;;;;;5059322;28;20049;-48
2020/12/09 04:44:46;;;;;;;0.30;0.17;;;5.20;99.90;;;;;;5069748;28;20047;-48
2020/12/09 04:47:26;;;;;;;0.30;0.20;;;5.20;99.90;;;;;;5070003;28;20052;-49
2020/12/09 04:50:11;;;;;;;0.10;0.10;;;5.20;99.90;;;;;;5073188;28;20049;-48
2020/12/09 04:52:46;;;;;;;0.45;0.15;;;5.20;99.90;;;;;;5072205;28;20473;-49
2020/12/09 04:55:15;;;;;;;0.10;0.10;;;5.30;99.90;;;;;;5075632;28;20123;-48
2020/12/09 04:58:14;;;;;;;0.00;0.00;;;5.30;99.90;;;;;;5076309;28;20040;-48
2020/12/09 05:00:45;;;;;;;0.13;0.00;;;5.30;99.90;;;;;;4972031;28;20047;-51
2020/12/09 05:03:19;;;;;;;0.00;0.00;;;5.30;99.90;;;;;;4982776;28;20499;-49
2020/12/09 05:05:47;;;;;;;0.22;0.10;;;5.30;99.90;;;;;;4984854;28;20062;-49
2020/12/09 05:08:19;;;;;;;0.00;0.00;;;5.30;99.90;;;;;;4960762;28;20405;-49
2020/12/09 05:10:51;;;;;;;0.00;0.00;;;5.30;99.90;;;;;;4977876;28;20051;-50
2020/12/09 05:13:27;;;;;;;0.88;0.00;;;5.30;99.90;;;;;;4974506;28;20042;-49
2020/12/09 05:15:55;;;;;;;0.00;0.00;;;5.20;99.90;;;;;;4977927;28;20051;-49
2020/12/09 05:18:39;;;;;;;0.45;0.00;;;5.20;99.90;;;;;;4977568;28;20515;-49
2020/12/09 05:21:14;;;;;;;0.43;0.03;;;5.20;99.90;;;;;;4973354;28;20054;-49
2020/12/09 05:24:01;;;;;;;0.10;0.00;;;5.20;99.90;;;;;;4976666;28;20057;-49
2020/12/09 05:26:32;;;;;;;0.93;0.50;;;5.20;99.90;;;;;;4974379;28;20055;-49
2020/12/09 05:29:10;;;;;;;0.20;0.20;;;5.20;99.90;;;;;;4975648;28;20451;-49
2020/12/09 05:31:43;;;;;;;0.10;0.10;;;5.20;99.90;;;;;;4970223;28;20511;-49
2020/12/09 05:34:27;;;;;;;0.30;0.30;;;5.20;99.90;;;;;;4980435;28;20054;-48
2020/12/09 05:37:14;;;;;;;0.60;0.20;;;5.20;99.90;;;;;;5017584;28;20480;-49
2020/12/09 05:39:52;;;;;;;1.40;0.20;;;5.20;99.90;;;;;;5074741;28;20385;-49
2020/12/09 05:42:21;;;;;;;0.20;0.20;;;5.20;99.90;;;;;;5068774;28;20044;-49
2020/12/09 05:44:49;;;;;;;0.35;0.35;;;5.30;99.90;;;;;;5072039;28;20052;-49
2020/12/09 05:47:17;;;;;;;1.88;0.45;;;5.30;99.90;;;;;;5076990;28;20074;-49
2020/12/09 05:49:44;;;;;;;2.28;0.50;;;5.30;99.90;;;;;;5071744;28;20408;-49
2020/12/09 05:52:20;;;;;;;13.80;2.55;;;5.30;99.90;;;;;;5058252;28;20062;-50
2020/12/09 05:54:52;;;;;;;9.23;1.80;;;5.20;99.90;;;;;;5073758;28;20060;-49
2020/12/09 05:57:24;;;;;;;8.25;1.30;;;5.30;99.90;;;;;;5074055;28;20063;-49
2020/12/09 05:59:51;;;;;;;4.10;1.17;;;5.20;99.90;;;;;;5075520;28;20052;-49
2020/12/09 06:02:19;;;;;;;1.67;0.55;;;5.20;99.90;;;;;;5074144;28;20051;-49
2020/12/09 06:04:59;;;;;;;4.93;0.50;;;5.20;99.90;;;;;;5055651;28;20045;-49
2020/12/09 06:07:28;;;;;;;5.10;0.77;;;5.20;99.90;;;;;;5073812;28;20041;-48
2020/12/09 06:10:16;;;;;;;4.97;0.80;;;5.20;99.90;;;;;;5077109;28;20404;-49
2020/12/09 06:12:50;;;;;;;11.32;0.90;;;5.20;99.90;;;;;;5067869;28;20374;-48
2020/12/09 06:15:18;;;;;;;1.88;0.68;;;5.10;99.90;;;;;;5073748;28;20052;-48
2020/12/09 06:17:45;;;;;;;5.43;0.70;;;5.10;99.90;;;;;;5081883;28;20041;-50
2020/12/09 06:20:12;;;;;;;3.85;1.25;;;5.10;99.90;;;;;;5071601;28;20045;-49
2020/12/09 06:22:38;;;;;;;7.00;0.70;;;5.10;99.90;;;;;;5075407;28;20052;-52
2020/12/09 06:25:07;;;;;;;1.55;0.30;;;5.10;99.90;;;;;;5073413;28;20045;-50
2020/12/09 06:27:37;;;;;;;3.88;0.90;;;5.10;99.90;;;;;;5076372;28;20071;-51
2020/12/09 06:30:07;;;;;;;0.30;0.20;;;5.10;99.90;;;;;;5073056;28;20055;-49
2020/12/09 06:32:51;;;;;;;1.88;0.20;;;5.10;99.90;;;;;;5071564;28;20404;-50
2020/12/09 06:35:19;;;;;;;0.30;0.10;;;5.10;99.90;;;;;;5059032;28;20469;-50
2020/12/09 06:38:07;;;;;;;0.10;0.10;;;5.20;99.90;;;;;;5064165;28;20490;-50
2020/12/09 06:40:57;;;;;;;0.20;0.10;;;5.10;99.90;;;;;;5072714;28;20052;-51
2020/12/09 06:43:24;;;;;;;0.40;0.10;;;5.20;99.90;;;;;;5054180;28;20048;-51
2020/12/09 06:45:50;;;;;;;0.10;0.10;;;5.20;99.90;;;;;;5071302;28;20056;-55
2020/12/09 06:48:18;;;;;;;0.10;0.00;;;5.20;99.90;;;;;;5071894;28;20052;-50
2020/12/09 06:50:47;;;;;;;0.75;0.00;;;5.20;99.90;;;;;;5063843;28;20485;-50
2020/12/09 06:53:23;;;;;;;0.00;0.00;;;5.20;99.90;;;;;;5062940;28;20057;-50
2020/12/09 06:55:51;;;;;;;0.47;0.05;;;5.20;99.90;;;;;;5071737;28;20059;-50
2020/12/09 06:58:35;;;;;;;0.38;0.28;;;5.20;99.90;;;;;;5070445;28;20052;-50
2020/12/09 07:01:03;;;;;;;1.75;0.85;;;5.20;99.90;;;;;;5059818;28;20041;-51
2020/12/09 07:03:31;;;;;;;0.38;0.30;;;5.20;99.90;;;;;;5071754;28;20458;-50
2020/12/09 07:05:58;;;;;;;1.60;0.30;;;5.20;99.90;;;;;;5071435;28;20055;-49
2020/12/09 07:08:24;;;;;;;1.77;0.38;;;5.20;99.90;;;;;;5060094;28;20074;-49
2020/12/09 07:10:51;;;;;;;0.50;0.40;;;5.20;99.90;;;;;;5065785;28;20075;-50
2020/12/09 07:13:18;;;;;;;1.23;0.28;;;5.30;99.90;;;;;;5058149;28;20485;-49
2020/12/09 07:15:52;;;;;;;0.50;0.30;;;5.30;99.90;;;;;;5071108;28;20064;-50
2020/12/09 07:18:18;;;;;;;0.45;0.30;;;5.30;99.90;;;;;;5058942;28;20059;-50
2020/12/09 07:20:50;;;;;;;0.68;0.20;;;5.40;99.90;;;;;;5064480;28;20489;-50
2020/12/09 07:23:17;;;;;;;0.20;0.20;;;5.40;99.90;;;;;;5061612;28;20045;-50
2020/12/09 07:25:43;;;;;;;0.60;0.30;;;5.40;99.90;;;;;;5070993;28;20059;-50
2020/12/09 07:28:10;;;;;;;1.33;0.30;;;5.50;99.90;;;;;;5067491;28;20048;-49
2020/12/09 07:30:37;;;;;;;0.40;0.32;;;5.50;99.90;;;;;;5068775;28;20500;-49
2020/12/09 07:33:03;;;;;;;0.25;0.20;;;5.50;99.90;;;;;;5067853;28;20045;-49
2020/12/09 07:35:30;;;;;;;0.17;0.10;;;5.50;99.90;;;;;;5070253;28;20072;-49
2020/12/09 07:37:59;;;;;;;1.65;0.17;;;5.60;99.90;;;;;;5064551;28;20394;-50
2020/12/09 07:40:29;;;;;;;0.55;0.30;;;5.50;99.90;;;;;;5062193;28;20404;-50
2020/12/09 07:43:05;;;;;;;1.40;0.30;;;5.60;99.90;;;;;;5061650;28;20051;-50
2020/12/09 07:45:38;;;;;;;1.02;0.40;;;5.70;99.90;;;;;;5066351;28;20060;-49
2020/12/09 07:48:07;;;;;;;1.77;0.65;;;5.70;99.90;;;;;;5054567;28;20405;-50
2020/12/09 07:50:35;;;;;;;0.45;0.20;;;5.70;99.90;;;;;;5065245;28;20065;-50
2020/12/09 07:53:02;;;;;;;1.70;0.70;;;5.80;99.90;;;;;;5066307;28;20401;-50
2020/12/09 07:55:29;;;;;;;5.57;1.45;;;5.70;99.90;;;;;;5072017;28;20405;-50
2020/12/09 07:58:07;;;;;;;1.45;0.50;;;5.70;99.90;;;;;;5069772;28;20044;-50
2020/12/09 08:00:43;;;;;;;0.40;0.30;;;5.70;99.90;;;;;;5072056;28;20045;-50
2020/12/09 08:03:24;;;;;;;1.42;0.50;;;5.70;99.90;;;;;;5071448;28;20087;-50
2020/12/09 08:05:52;;;;;;;0.80;0.30;;;5.70;99.90;;;;;;5064044;28;22472;-50
2020/12/09 08:08:20;;;;;;;0.10;0.10;;;5.70;99.90;;;;;;5062022;28;20412;-50
2020/12/09 08:10:49;;;;;;;0.20;0.20;;;5.70;99.90;;;;;;5063101;28;20059;-50
2020/12/09 08:13:24;;;;;;;0.30;0.20;;;5.70;99.90;;;;;;5071777;28;20040;-51
2020/12/09 08:16:06;;;;;;;1.15;0.20;;;5.70;99.90;;;;;;5069585;28;21721;-50
2020/12/09 08:18:33;;;;;;;0.47;0.08;;;5.70;99.90;;;;;;5070659;28;20045;-50
2020/12/09 08:21:00;;;;;;;0.22;0.20;;;5.60;99.90;;;;;;5071452;28;20055;-50
2020/12/09 08:23:40;;;;;;;0.38;0.20;;;5.60;99.90;;;;;;5069035;28;20052;-50
2020/12/09 08:26:08;;;;;;;0.30;0.15;;;5.70;99.90;;;;;;5072346;28;20400;-50
2020/12/09 08:28:35;;;;;;;0.40;0.20;;;5.70;99.90;;;;;;5069391;28;20056;-51
2020/12/09 08:31:22;;;;;;;0.40;0.30;;;5.70;99.90;;;;;;5063462;28;20067;-49
2020/12/09 08:33:50;;;;;;;1.52;0.90;;;5.70;99.90;;;;;;5062989;28;20052;-50
2020/12/09 08:36:18;;;;;;;0.70;0.60;;;5.70;99.90;;;;;;5060102;28;20745;-49
2020/12/09 08:38:48;;;;;;;1.85;0.50;;;5.70;99.90;;;;;;5072133;28;20397;-50
2020/12/09 08:41:27;;;;;;;2.33;0.50;;;5.80;99.90;;;;;;5069528;28;20408;-49
2020/12/09 08:43:56;;;;;;;0.98;0.68;;;5.80;99.90;;;;;;5064085;28;20053;-50
2020/12/09 08:46:24;;;;;;;1.17;0.40;;;5.80;99.90;;;;;;5071047;28;20100;-49
2020/12/09 08:48:52;;;;;;;0.40;0.40;;;5.80;99.90;;;;;;5070477;28;20700;-50
2020/12/09 08:51:30;;;;;;;0.30;0.20;;;5.80;99.90;;;;;;5071190;28;20044;-50
2020/12/09 08:53:59;;;;;;;1.40;0.20;;;5.80;99.90;;;;;;5066666;28;20045;-50
2020/12/09 08:56:33;;;;;;;0.30;0.20;;;5.80;99.90;;;;;;5065952;28;20041;-49
2020/12/09 08:59:00;;;;;;;0.13;0.13;;;5.90;99.90;;;;;;5067400;28;20057;-49
2020/12/09 09:01:27;;;;;;;0.50;0.10;;;5.80;99.90;;;;;;5056562;28;20052;-50
2020/12/09 09:04:04;;;;;;;1.60;0.10;;;5.90;99.90;;;;;;5070892;28;20060;-51
2020/12/09 09:06:31;;;;;;;0.20;0.10;;;5.90;99.90;;;;;;5068613;28;20402;-50
2020/12/09 09:08:57;;;;;;;0.52;0.10;;;5.90;99.90;;;;;;5062439;28;20049;-50
2020/12/09 09:11:30;;;;;;;0.20;0.10;;;5.90;99.90;;;;;;5065994;28;20055;-49
2020/12/09 09:13:56;;;;;;;0.20;0.20;;;5.90;99.90;;;;;;5052790;28;20135;-50
2020/12/09 09:16:23;;;;;;;0.22;0.00;;;5.90;99.90;;;;;;5069462;28;20347;-50
2020/12/09 09:18:50;;;;;;;0.10;0.10;;;5.90;99.90;;;;;;5066421;28;20416;-51
2020/12/09 09:21:17;;;;;;;1.13;0.10;;;5.90;99.90;;;;;;5061489;28;20049;-50
2020/12/09 09:23:44;;;;;;;0.68;0.10;;;5.90;99.90;;;;;;5062022;28;20071;-51
2020/12/09 09:26:14;;;;;;;0.25;0.17;;;5.90;99.90;;;;;;5055857;28;20173;-50
2020/12/09 09:28:41;;;;;;;1.35;0.20;;;5.90;99.90;;;;;;5065947;28;20203;-49
2020/12/09 09:31:09;;;;;;;0.63;0.30;;;5.90;99.90;;;;;;5058808;28;20059;-49
2020/12/09 09:33:37;;;;;;;0.77;0.30;;;5.90;99.90;;;;;;5066967;28;20064;-52
2020/12/09 09:36:04;;;;;;;0.30;0.20;;;5.90;99.90;;;;;;5073264;28;20044;-51
2020/12/09 09:38:30;;;;;;;0.63;0.30;;;6.00;99.90;;;;;;5074958;28;20768;-49
2020/12/09 09:40:58;;;;;;;0.50;0.20;;;6.00;99.90;;;;;;5075003;28;20056;-49
2020/12/09 09:43:24;;;;;;;0.20;0.20;;;6.00;99.90;;;;;;5075534;28;20052;-50
2020/12/09 09:45:51;;;;;;;0.40;0.30;;;6.00;99.90;;;;;;5064205;28;20428;-50
2020/12/09 09:48:17;;;;;;;1.00;0.20;;;6.10;99.90;;;;;;5070348;28;20048;-49
2020/12/09 09:50:44;;;;;;;1.67;0.30;;;6.10;99.90;;;;;;5072713;28;20052;-50
2020/12/09 09:53:12;;;;;;;0.20;0.20;;;6.10;99.90;;;;;;5072770;28;20048;-50
2020/12/09 09:55:38;;;;;;;0.20;0.20;;;6.10;99.90;;;;;;5073931;28;20071;-53
2020/12/09 09:58:06;;;;;;;0.40;0.20;;;6.20;99.90;;;;;;5069034;28;20132;-52
2020/12/09 10:00:33;;;;;;;0.30;0.20;;;6.20;99.90;;;;;;5074824;28;20496;-49
2020/12/09 10:03:00;;;;;;;0.50;0.20;;;6.20;99.90;;;;;;5070210;28;20056;-51
2020/12/09 10:05:27;;;;;;;1.88;0.17;;;6.30;99.90;;;;;;5073339;28;20051;-50
2020/12/09 10:07:54;;;;;;;1.20;0.15;;;6.30;99.90;;;;;;5070107;28;20404;-50
2020/12/09 10:10:20;;;;;;;0.38;0.30;;;6.30;99.90;;;;;;5062295;28;20070;-49
2020/12/09 10:12:47;;;;;;;0.20;0.13;;;6.30;99.90;;;;;;5066865;28;20052;-50
2020/12/09 10:15:14;;;;;;;1.48;0.30;;;6.40;99.90;;;;;;5066016;28;20064;-51
2020/12/09 10:17:48;;;;;;;0.85;0.20;;;6.40;99.90;;;;;;5073714;28;20052;-49
2020/12/09 10:20:16;;;;;;;0.75;0.20;;;6.40;99.90;;;;;;5068348;28;20413;-49
2020/12/09 10:22:45;;;;;;;0.30;0.20;;;6.50;99.90;;;;;;5059047;28;20052;-49
2020/12/09 10:25:11;;;;;;;0.40;0.20;;;6.50;99.90;;;;;;5072926;28;20079;-50
2020/12/09 10:27:38;;;;;;;0.50;0.20;;;6.50;99.90;;;;;;5065331;28;20059;-50
2020/12/09 10:30:06;;;;;;;2.72;0.20;;;6.50;99.90;;;;;;5057557;28;20052;-49
2020/12/09 10:32:32;;;;;;;0.50;0.20;;;6.60;99.90;;;;;;5067170;28;20070;-49
2020/12/09 10:34:59;;;;;;;0.10;0.10;;;6.50;99.90;;;;;;5056630;28;20041;-49
2020/12/09 10:37:26;;;;;;;0.30;0.10;;;6.50;99.90;;;;;;5070858;28;20040;-52
2020/12/09 10:39:58;;;;;;;0.65;0.20;;;6.60;99.90;;;;;;5073402;28;20060;-49
2020/12/09 10:42:25;;;;;;;0.30;0.20;;;6.60;99.90;;;;;;5063960;28;20064;-49
2020/12/09 10:44:51;;;;;;;0.63;0.35;;;6.60;99.90;;;;;;5064058;28;20373;-49
2020/12/09 10:47:19;;;;;;;0.70;0.30;;;6.60;99.90;;;;;;5072770;28;20059;-50
2020/12/09 10:49:45;;;;;;;0.70;0.30;;;6.70;99.90;;;;;;5068389;28;20060;-50
2020/12/09 10:52:13;;;;;;;0.75;0.10;;;6.70;99.90;;;;;;5071155;28;20052;-49
2020/12/09 10:54:40;;;;;;;0.38;0.15;;;6.80;99.90;;;;;;5069241;28;20052;-49
2020/12/09 10:57:13;;;;;;;0.40;0.30;;;6.80;99.90;;;;;;5070842;28;20048;-51
2020/12/09 10:59:40;;;;;;;0.43;0.38;;;6.80;99.90;;;;;;5072588;28;20476;-49
2020/12/09 11:02:07;;;;;;;0.88;0.30;;;6.80;99.90;;;;;;5064871;28;20473;-50
2020/12/09 11:04:33;;;;;;;0.38;0.30;;;6.90;99.90;;;;;;5074343;28;20052;-50
2020/12/09 11:07:09;;;;;;;1.42;0.30;;;6.90;99.90;;;;;;5070672;28;20056;-50
2020/12/09 11:09:39;;;;;;;2.63;0.85;;;6.90;99.90;;;;;;5070274;28;20068;-52
2020/12/09 11:12:06;;;;;;;0.80;0.30;;;6.90;99.90;;;;;;5068760;28;20138;-50
2020/12/09 11:14:34;;;;;;;0.32;0.20;;;6.90;99.90;;;;;;5071579;28;20056;-53
2020/12/09 11:17:02;;;;;;;0.30;0.30;;;6.90;99.90;;;;;;5070304;28;20052;-50
2020/12/09 11:19:29;;;;;;;1.65;0.40;;;7.00;99.90;;;;;;5068417;28;20040;-50
2020/12/09 11:21:55;;;;;;;0.50;0.20;;;7.00;99.90;;;;;;5072210;28;20420;-50
2020/12/09 11:24:23;;;;;;;0.95;0.50;;;7.00;99.90;;;;;;5071456;28;20052;-52
2020/12/09 11:26:49;;;;;;;0.45;0.30;;;7.10;99.90;;;;;;5061900;28;20048;-50
2020/12/09 11:29:15;;;;;;;0.93;0.30;;;7.10;99.90;;;;;;5066641;28;20048;-50
2020/12/09 11:31:42;;;;;;;1.00;0.35;;;7.10;99.90;;;;;;5072452;28;20443;-50
2020/12/09 11:34:08;;;;;;;1.38;0.20;;;7.10;99.90;;;;;;5069617;28;20048;-50
2020/12/09 11:36:35;;;;;;;0.20;0.17;;;7.20;99.90;;;;;;5075030;28;20045;-52
2020/12/09 11:39:02;;;;;;;0.43;0.40;;;7.20;99.90;;;;;;5069230;28;20055;-50
2020/12/09 11:41:30;;;;;;;0.57;0.50;;;7.20;99.90;;;;;;5069343;28;20056;-50
2020/12/09 11:43:58;;;;;;;0.40;0.40;;;7.20;99.90;;;;;;5070986;28;20044;-50
2020/12/09 11:46:28;;;;;;;0.60;0.45;;;7.20;99.90;;;;;;5070243;28;20048;-50
2020/12/09 11:48:55;;;;;;;0.50;0.40;;;7.30;99.90;;;;;;5062990;28;20060;-50
2020/12/09 11:51:25;;;;;;;1.85;0.40;;;7.30;99.90;;;;;;5064952;28;20489;-50
2020/12/09 11:53:52;;;;;;;0.30;0.22;;;7.40;99.90;;;;;;5069683;28;20048;-50
2020/12/09 11:56:26;;;;;;;1.70;0.20;;;7.50;99.90;;;;;;5070166;28;20055;-50
2020/12/09 11:58:54;;;;;;;1.15;0.35;;;7.40;99.90;;;;;;5073589;28;20457;-52
2020/12/09 12:01:21;;;;;;;0.10;0.10;;;7.50;99.90;;;;;;5071366;28;20037;-50
2020/12/09 12:03:48;;;;;;;0.30;0.20;;;7.40;99.90;;;;;;5071726;28;20056;-50
2020/12/09 12:06:20;;;;;;;1.33;0.20;;;7.40;99.90;;;;;;5071183;28;20381;-50
2020/12/09 12:08:48;;;;;;;0.57;0.30;;;7.30;99.90;;;;;;5070212;28;20044;-50
2020/12/09 12:11:17;;;;;;;0.40;0.30;;;7.30;99.90;;;;;;5061773;28;20080;-50
2020/12/09 12:13:43;;;;;;;0.50;0.40;;;7.20;99.90;;;;;;5071585;28;20056;-49
2020/12/09 12:16:14;;;;;;;0.40;0.30;;;7.20;99.90;;;;;;5071842;28;20465;-52
2020/12/09 12:18:41;;;;;;;0.40;0.30;;;7.10;99.90;;;;;;5071197;28;20048;-50
2020/12/09 12:21:11;;;;;;;1.05;0.30;;;7.10;99.90;;;;;;5070607;28;20049;-50
2020/12/09 12:23:38;;;;;;;0.30;0.25;;;7.00;99.90;;;;;;5065023;28;20386;-49
2020/12/09 12:26:04;;;;;;;2.15;0.20;;;7.10;99.90;;;;;;5068250;28;20056;-50
2020/12/09 12:28:31;;;;;;;0.75;0.10;;;7.00;99.90;;;;;;5071503;28;20056;-50
2020/12/09 12:30:58;;;;;;;1.40;0.43;;;7.00;99.90;;;;;;5067789;28;20409;-49
2020/12/09 12:33:25;;;;;;;2.45;0.40;;;7.00;99.90;;;;;;5071623;28;20409;-50
2020/12/09 12:35:51;;;;;;;3.10;0.30;;;7.10;99.90;;;;;;5064527;28;20044;-50
2020/12/09 12:38:18;;;;;;;0.30;0.20;;;7.10;99.90;;;;;;5062003;28;20048;-50
2020/12/09 12:40:44;;;;;;;0.17;0.10;;;7.00;99.90;;;;;;5071175;28;20044;-50
2020/12/09 12:43:11;;;;;;;0.17;0.10;;;7.00;99.90;;;;;;5071642;28;20417;-50
2020/12/09 12:45:37;;;;;;;0.30;0.30;;;7.00;99.90;;;;;;5056432;28;20040;-50
2020/12/09 12:48:04;;;;;;;1.05;0.20;;;7.00;99.90;;;;;;5069917;28;20040;-51
2020/12/09 12:50:30;;;;;;;0.20;0.20;;;7.00;99.90;;;;;;5072653;28;20053;-50
2020/12/09 12:52:57;;;;;;;0.20;0.15;;;6.90;99.90;;;;;;5078894;28;20435;-51
2020/12/09 12:55:23;;;;;;;0.30;0.25;;;6.90;99.90;;;;;;5081158;28;20059;-50
2020/12/09 12:57:50;;;;;;;0.22;0.20;;;6.90;99.90;;;;;;5071532;28;20064;-51
2020/12/09 13:00:18;;;;;;;0.77;0.17;;;6.90;99.90;;;;;;5069651;28;20485;-50
2020/12/09 13:02:45;;;;;;;0.35;0.30;;;6.90;99.90;;;;;;5059786;28;20052;-50
2020/12/09 13:05:12;;;;;;;0.30;0.20;;;6.90;99.90;;;;;;5069727;28;20061;-51
2020/12/09 13:07:39;;;;;;;0.22;0.20;;;6.90;99.90;;;;;;5070280;28;20083;-51